Gordon Reid — CGBR — position and weather

sailwx.info

Track history (hours):
 
Tides and Currents Weather Stations Pressure Air Temp Water Temp Dewpoint Dewpoint Depression Visibility Wind Speed Wind Dir Waves Ship Positions

Gordon Reid

Last reported at 2018-Apr-22 05:45 UTC. Time now 2018-Apr-26 02:08 UTC.
Position N 52°19' W 128°49'.

Length 49.95 m; beam 11 m; draft 5.4 m.

Type: SAR. MMSI: 316094000.

Date/timePositionNaut miles runAvg speedWind from/ knotsBaromVisibWave heightAir tempDewpointWater temp
2018-Apr-22 05:45N 52°19' W 128°49'311.4
2018-Apr-22 05:28N 52°16' W 128°48'611.0
2018-Apr-22 04:57N 52°15' W 128°39'511.9
2018-Apr-22 04:30N 52°16' W 128°31'711.7
2018-Apr-22 03:54N 52°15' W 128°19'511.4
2018-Apr-22 03:30N 52°14' W 128°12'611.4
2018-Apr-22 02:59N 52°18' W 128°05'11 9.5
2018-Apr-22 01:49N 52°10' W 127°52'412.3
2018-Apr-22 01:30N 52°06' W 127°54'612.2
2018-Apr-22 01:00N 52°00' W 127°55'612.3
2018-Apr-22 00:31N 51°54' W 127°57'612.3
2018-Apr-22 00:00N 51°48' W 127°57'612.2
2018-Apr-21 23:30N 51°42' W 127°57'4 8.3
2018-Apr-21 23:00N 51°39' W 128°02'2 4.4
2018-Apr-21 22:28N 51°39' W 128°05'0 0.0
2018-Apr-21 21:58N 51°39' W 128°05'0 0.0
2018-Apr-21 21:25N 51°39' W 128°05'0 0.0
2018-Apr-21 20:55N 51°39' W 128°05'0 0.0
2018-Apr-21 20:28N 51°39' W 128°05'0 0.0
2018-Apr-21 19:58N 51°39' W 128°05'0 0.0
2018-Apr-21 19:28N 51°39' W 128°05'0 0.0
2018-Apr-21 18:52N 51°39' W 128°05'0 0.0
2018-Apr-21 18:28N 51°39' W 128°05'0 0.0
2018-Apr-21 17:58N 51°39' W 128°05'0 0.0
2018-Apr-21 17:28N 51°39' W 128°05'0 0.0
2018-Apr-21 16:58N 51°39' W 128°05'0 0.0
2018-Apr-21 16:28N 51°39' W 128°05'0 0.0
2018-Apr-21 15:58N 51°39' W 128°05'0 0.0
2018-Apr-21 15:28N 51°39' W 128°05'0 0.0
2018-Apr-21 14:58N 51°39' W 128°05'0 0.1
2018-Apr-21 14:28N 51°39' W 128°05'0 0.1
2018-Apr-21 13:58N 51°39' W 128°05'0 0.0
2018-Apr-21 13:28N 51°39' W 128°05'0 0.0
2018-Apr-21 12:58N 51°39' W 128°05'0 0.0
2018-Apr-21 12:25N 51°39' W 128°05'0 0.0
2018-Apr-21 11:55N 51°39' W 128°05'0 0.0
2018-Apr-21 11:28N 51°39' W 128°05'0 0.0
2018-Apr-21 10:49N 51°39' W 128°05'0 0.0
2018-Apr-21 10:28N 51°39' W 128°05'0 0.0
2018-Apr-21 09:55N 51°39' W 128°05'0 0.0
2018-Apr-21 09:28N 51°39' W 128°05'0 0.0
2018-Apr-21 08:58N 51°39' W 128°05'0 0.0
2018-Apr-21 08:28N 51°39' W 128°05'0 0.1
2018-Apr-21 07:55N 51°39' W 128°05'0 0.1
2018-Apr-21 07:28N 51°39' W 128°05'0 0.1
2018-Apr-21 06:58N 51°39' W 128°05'0 0.1
2018-Apr-21 06:28N 51°39' W 128°05'0 0.1
2018-Apr-21 05:58N 51°39' W 128°05'0 0.0
2018-Apr-21 05:25N 51°39' W 128°05'0 0.1
2018-Apr-21 04:58N 51°39' W 128°05'0 0.0
2018-Apr-21 04:28N 51°39' W 128°05'0 0.1
2018-Apr-21 03:58N 51°39' W 128°05'0 0.0
2018-Apr-21 03:28N 51°39' W 128°05'0 0.1
2018-Apr-21 02:52N 51°39' W 128°05'0 0.1
2018-Apr-21 02:28N 51°39' W 128°05'0 0.1
2018-Apr-21 01:58N 51°39' W 128°05'0 0.0
2018-Apr-21 01:28N 51°39' W 128°05'0 0.1
2018-Apr-21 00:55N 51°39' W 128°05'0 0.0
2018-Apr-21 00:28N 51°39' W 128°05'0 0.0
2018-Apr-20 23:55N 51°39' W 128°05'0 0.0
2018-Apr-20 23:22N 51°39' W 128°05'0 0.0
2018-Apr-20 22:58N 51°39' W 128°05'0 0.0
2018-Apr-20 22:28N 51°39' W 128°05'0 0.0
2018-Apr-20 22:00N 51°39' W 128°05'2 4.6
2018-Apr-20 21:30N 51°39' W 128°02'510.7
2018-Apr-20 21:00N 51°37' W 127°54'612.6
2018-Apr-20 20:30N 51°31' W 127°50'612.0
2018-Apr-20 19:59N 51°25' W 127°50'611.8
2018-Apr-20 19:29N 51°19' W 127°53'612.0
2018-Apr-20 19:00N 51°13' W 127°53'612.4
2018-Apr-20 18:30N 51°08' W 127°50'612.0
2018-Apr-20 17:59N 51°04' W 127°42'1112.4
2018-Apr-20 17:04N 50°57' W 127°28'113.9
2018-Apr-20 17:00N 50°56' W 127°27'610.7
2018-Apr-20 16:29N 50°51' W 127°24'611.8
2018-Apr-20 16:00N 50°46' W 127°27'3 1.3
2018-Apr-20 13:59N 50°43' W 127°29'0 0.0
2018-Apr-20 13:29N 50°43' W 127°29'0 0.0
2018-Apr-20 12:59N 50°43' W 127°29'0 0.0
2018-Apr-20 12:29N 50°43' W 127°29'0 0.0
2018-Apr-19 21:47N 50°43' W 127°29'0 0.0
2018-Apr-19 12:17N 50°43' W 127°29'0 0.0
2018-Apr-19 11:53N 50°43' W 127°29'0 0.0
2018-Apr-18 23:35N 50°43' W 127°29'0 0.0
2018-Apr-18 19:59N 50°43' W 127°29'0 0.0
2018-Apr-18 18:59N 50°43' W 127°29'0 0.0
2018-Apr-18 18:26N 50°43' W 127°29'1 2.6
2018-Apr-18 18:00N 50°43' W 127°28'0 0.0
2018-Apr-18 17:30N 50°43' W 127°28'0 0.0
2018-Apr-18 17:00N 50°43' W 127°28'0 0.0
2018-Apr-18 16:30N 50°43' W 127°28'0 0.0
2018-Apr-18 16:00N 50°43' W 127°28'0 0.0
2018-Apr-18 15:30N 50°43' W 127°28'1 2.1
2018-Apr-18 14:59N 50°44' W 127°28'510.8
2018-Apr-18 14:30N 50°49' W 127°25'611.5
2018-Apr-18 13:59N 50°55' W 127°22'0 0.6
2018-Apr-18 13:29N 50°55' W 127°21'0 0.0
2018-Apr-18 12:59N 50°55' W 127°21'0 0.0
2018-Apr-18 12:29N 50°55' W 127°21'0 0.0
2018-Apr-18 11:59N 50°55' W 127°21'0 0.0
2018-Apr-18 11:29N 50°55' W 127°21'0 0.0
2018-Apr-18 10:59N 50°55' W 127°21'0 0.0
2018-Apr-18 10:29N 50°55' W 127°21'0 0.0
2018-Apr-18 09:59N 50°55' W 127°21'0 0.0
2018-Apr-18 09:29N 50°55' W 127°21'0 0.0
2018-Apr-18 08:59N 50°55' W 127°21'0 0.0
2018-Apr-18 08:29N 50°55' W 127°21'0 0.0
2018-Apr-18 07:59N 50°55' W 127°21'0 0.1
2018-Apr-18 07:29N 50°55' W 127°21'0 0.0
2018-Apr-18 06:59N 50°55' W 127°21'0 0.0
2018-Apr-18 06:29N 50°55' W 127°21'0 0.0
2018-Apr-18 05:59N 50°55' W 127°21'0 0.0
2018-Apr-18 05:29N 50°55' W 127°21'0 0.0
2018-Apr-18 04:59N 50°55' W 127°21'0 0.0
2018-Apr-18 04:23N 50°55' W 127°21'0 0.0
2018-Apr-18 03:59N 50°55' W 127°21'0 0.0
2018-Apr-18 03:29N 50°55' W 127°21'0 0.0
2018-Apr-18 02:59N 50°55' W 127°21'0 0.0
2018-Apr-18 02:29N 50°55' W 127°21'0 0.0
2018-Apr-18 01:59N 50°55' W 127°21'0 0.1
2018-Apr-18 01:29N 50°55' W 127°21'0 0.0
2018-Apr-18 00:59N 50°55' W 127°21'0 0.0
2018-Apr-18 00:29N 50°55' W 127°21'0 0.0
2018-Apr-17 23:59N 50°55' W 127°21'0 0.0
2018-Apr-17 23:29N 50°55' W 127°21'0 0.0
2018-Apr-17 22:59N 50°55' W 127°21'0 0.0
2018-Apr-17 22:17N 50°55' W 127°21'0 0.0
2018-Apr-17 21:53N 50°55' W 127°21'0 0.0
2018-Apr-17 21:11N 50°55' W 127°21'0 0.0
2018-Apr-17 20:59N 50°55' W 127°21'0 0.0
2018-Apr-17 20:17N 50°55' W 127°21'0 0.0
2018-Apr-17 19:59N 50°55' W 127°21'0 0.9
2018-Apr-17 19:30N 50°55' W 127°21'5 9.9
2018-Apr-17 19:00N 50°50' W 127°25'711.5
2018-Apr-17 18:26N 50°44' W 127°28'0 0.4
2018-Apr-17 17:49N 50°44' W 127°29'1 2.5
2018-Apr-17 17:25N 50°44' W 127°28'0 0.2
2018-Apr-17 17:01N 50°44' W 127°28'1 1.0
2018-Apr-17 16:05N 50°44' W 127°29'0 1.3
2018-Apr-17 15:58N 50°44' W 127°28'4 7.8
2018-Apr-17 15:30N 50°47' W 127°31'611.1
2018-Apr-17 15:00N 50°50' W 127°38'1 1.2
2018-Apr-17 14:27N 50°50' W 127°39'0 0.0
2018-Apr-17 13:57N 50°50' W 127°39'0 0.1
2018-Apr-17 13:27N 50°50' W 127°39'0 0.1
2018-Apr-17 12:57N 50°50' W 127°39'0 0.0
2018-Apr-17 12:27N 50°50' W 127°39'0 0.0
2018-Apr-17 11:57N 50°50' W 127°39'0 0.0
2018-Apr-17 11:27N 50°50' W 127°39'0 0.0
2018-Apr-17 10:45N 50°50' W 127°39'0 0.0
2018-Apr-17 10:27N 50°50' W 127°39'0 0.0
2018-Apr-17 09:57N 50°50' W 127°39'0 0.0
2018-Apr-17 09:21N 50°50' W 127°39'0 0.0
2018-Apr-17 08:57N 50°50' W 127°39'0 0.0
2018-Apr-17 08:27N 50°50' W 127°39'0 0.0
2018-Apr-17 07:57N 50°50' W 127°39'0 0.0
2018-Apr-17 07:21N 50°50' W 127°39'0 0.0
2018-Apr-17 06:57N 50°50' W 127°39'0 0.1
2018-Apr-17 06:27N 50°50' W 127°39'0 0.0
2018-Apr-17 05:51N 50°50' W 127°39'0 0.1
2018-Apr-17 05:27N 50°50' W 127°39'0 0.0
2018-Apr-17 04:45N 50°50' W 127°39'0 0.0
2018-Apr-17 04:27N 50°50' W 127°39'0 0.0
2018-Apr-17 03:57N 50°50' W 127°39'0 0.0
2018-Apr-17 03:27N 50°50' W 127°39'0 0.0
2018-Apr-17 02:57N 50°50' W 127°39'0 0.0
2018-Apr-17 02:27N 50°50' W 127°39'0 0.0
2018-Apr-17 01:57N 50°50' W 127°39'0 0.0
2018-Apr-17 01:15N 50°50' W 127°39'0 0.0
2018-Apr-17 00:57N 50°50' W 127°39'0 0.0
2018-Apr-17 00:27N 50°50' W 127°39'0 0.0
2018-Apr-16 23:57N 50°50' W 127°39'0 0.0
2018-Apr-16 23:27N 50°50' W 127°39'0 0.1
2018-Apr-16 22:57N 50°50' W 127°39'0 0.0
2018-Apr-16 22:27N 50°50' W 127°39'0 0.1
2018-Apr-16 22:00N 50°50' W 127°39'3 5.2
2018-Apr-16 21:30N 50°50' W 127°43'611.4
2018-Apr-16 21:00N 50°52' W 127°52'0 0.2
2018-Apr-16 20:28N 50°51' W 127°52'0 0.0
2018-Apr-16 19:58N 50°51' W 127°52'0 0.0
2018-Apr-16 19:28N 50°51' W 127°52'0 0.0
2018-Apr-16 18:58N 50°51' W 127°52'0 0.0
2018-Apr-16 18:28N 50°51' W 127°52'0 0.0
2018-Apr-16 17:58N 50°51' W 127°52'0 0.0
2018-Apr-16 17:28N 50°51' W 127°52'0 0.0
2018-Apr-16 16:58N 50°51' W 127°52'0 0.0
2018-Apr-16 16:28N 50°51' W 127°52'0 0.0
2018-Apr-16 15:52N 50°51' W 127°52'0 0.0
2018-Apr-16 13:58N 50°51' W 127°52'0 0.0
2018-Apr-16 13:04N 50°51' W 127°52'0 0.0
2018-Apr-16 12:58N 50°51' W 127°52'0 0.0
2018-Apr-16 12:28N 50°51' W 127°52'0 0.0
2018-Apr-16 11:58N 50°51' W 127°52'0 0.0
2018-Apr-16 11:22N 50°51' W 127°52'0 0.0
2018-Apr-16 10:58N 50°51' W 127°52'0 0.0
2018-Apr-16 10:28N 50°51' W 127°52'0 0.0
2018-Apr-16 09:58N 50°51' W 127°52'0 0.0
2018-Apr-16 09:28N 50°51' W 127°52'0 0.0
2018-Apr-16 08:58N 50°51' W 127°52'0 0.0
2018-Apr-16 08:28N 50°51' W 127°52'0 0.0
2018-Apr-16 07:58N 50°51' W 127°52'0 0.1
2018-Apr-16 07:28N 50°51' W 127°52'0 0.0
2018-Apr-16 06:58N 50°51' W 127°52'0 0.0
2018-Apr-16 06:28N 50°51' W 127°52'0 0.1
2018-Apr-16 05:58N 50°51' W 127°52'0 0.1
2018-Apr-16 05:28N 50°51' W 127°52'0 0.0
2018-Apr-16 04:58N 50°51' W 127°52'0 0.0
2018-Apr-16 04:28N 50°51' W 127°52'0 0.0
2018-Apr-16 03:58N 50°51' W 127°52'0 0.0
2018-Apr-16 03:28N 50°51' W 127°52'0 0.0
2018-Apr-16 02:58N 50°51' W 127°52'0 0.0
2018-Apr-16 02:28N 50°51' W 127°52'0 0.0
2018-Apr-16 01:58N 50°51' W 127°52'0 0.0
2018-Apr-16 01:28N 50°51' W 127°52'0 0.0
2018-Apr-16 00:58N 50°51' W 127°52'0 0.0
2018-Apr-16 00:22N 50°51' W 127°52'0 0.0
2018-Apr-15 23:58N 50°51' W 127°52'0 0.0
2018-Apr-15 23:28N 50°51' W 127°52'0 0.0
2018-Apr-15 22:58N 50°51' W 127°52'0 0.0
2018-Apr-15 22:28N 50°51' W 127°52'0 0.0
2018-Apr-15 21:52N 50°51' W 127°52'0 0.1
2018-Apr-15 21:28N 50°51' W 127°52'0 0.1
2018-Apr-15 20:58N 50°51' W 127°52'1 2.6
2018-Apr-15 20:27N 50°52' W 127°50'4 9.7
2018-Apr-15 20:00N 50°50' W 127°44'611.3
2018-Apr-15 19:30N 50°49' W 127°35'4 7.1
2018-Apr-15 19:00N 50°47' W 127°30'0 0.5
2018-Apr-15 18:30N 50°47' W 127°30'4 7.2
2018-Apr-15 18:00N 50°48' W 127°35'3 5.5
2018-Apr-15 17:25N 50°50' W 127°39'0 0.1
2018-Apr-15 16:55N 50°50' W 127°39'0 0.1
2018-Apr-15 16:25N 50°50' W 127°39'0 0.0
2018-Apr-15 15:49N 50°50' W 127°39'0 0.0
2018-Apr-15 15:25N 50°50' W 127°39'0 0.0
2018-Apr-15 14:55N 50°50' W 127°39'0 0.0
2018-Apr-15 14:25N 50°50' W 127°39'0 0.1
2018-Apr-15 13:55N 50°50' W 127°39'0 0.1
2018-Apr-15 13:25N 50°50' W 127°39'0 0.0
2018-Apr-15 12:55N 50°50' W 127°39'0 0.0
2018-Apr-15 12:25N 50°50' W 127°39'0 0.0
2018-Apr-15 11:55N 50°50' W 127°39'0 0.0
2018-Apr-15 11:25N 50°50' W 127°39'0 0.0
2018-Apr-15 10:49N 50°50' W 127°39'0 0.0
2018-Apr-15 10:25N 50°50' W 127°39'0 0.0
2018-Apr-15 09:55N 50°50' W 127°39'0 0.0
2018-Apr-15 09:19N 50°50' W 127°39'0 0.0
2018-Apr-15 08:55N 50°50' W 127°39'0 0.1
2018-Apr-15 08:25N 50°50' W 127°39'0 0.1
2018-Apr-15 07:55N 50°50' W 127°39'0 0.0
2018-Apr-15 07:25N 50°50' W 127°39'0 0.0
2018-Apr-15 06:55N 50°50' W 127°39'0 0.1
2018-Apr-15 06:25N 50°50' W 127°39'0 0.1
2018-Apr-15 05:55N 50°50' W 127°39'0 0.1
2018-Apr-15 05:13N 50°50' W 127°39'0 0.1
2018-Apr-15 04:55N 50°50' W 127°39'0 0.1
2018-Apr-15 04:19N 50°50' W 127°39'0 0.0
2018-Apr-15 03:55N 50°50' W 127°39'0 0.0
2018-Apr-15 03:25N 50°50' W 127°39'0 0.0
2018-Apr-15 02:55N 50°50' W 127°39'0 0.0
2018-Apr-15 02:19N 50°50' W 127°39'0 0.1
2018-Apr-15 01:55N 50°50' W 127°39'0 0.1
2018-Apr-15 01:25N 50°50' W 127°39'0 0.0
2018-Apr-15 00:55N 50°50' W 127°39'0 0.1
2018-Apr-15 00:25N 50°50' W 127°39'0 0.0
2018-Apr-14 23:55N 50°50' W 127°39'0 0.1
2018-Apr-14 23:25N 50°50' W 127°39'0 0.0
2018-Apr-14 22:55N 50°50' W 127°39'0 0.1
2018-Apr-14 22:25N 50°50' W 127°39'1 2.6
2018-Apr-14 22:00N 50°49' W 127°39'511.0
2018-Apr-14 21:31N 50°51' W 127°47'611.7
2018-Apr-14 21:00N 50°53' W 127°56'  
Track history (hours):
 
Tides and Currents Weather Stations Pressure Air Temp Water Temp Dewpoint Dewpoint Depression Visibility Wind Speed Wind Dir Waves Ship Positions

Gordon Reid

Last reported at 2018-Apr-22 05:45 UTC. Time now 2018-Apr-26 02:08 UTC.
Position N 52°19' W 128°49'.

Length 49.95 m; beam 11 m; draft 5.4 m.

Type: SAR. MMSI: 316094000.

Date/timePositionNaut miles runAvg speedWind from/ knotsBaromVisibWave heightAir tempDewpointWater temp
2018-Apr-22 05:45N 52°19' W 128°49'311.4
2018-Apr-22 05:28N 52°16' W 128°48'611.0
2018-Apr-22 04:57N 52°15' W 128°39'511.9
2018-Apr-22 04:30N 52°16' W 128°31'711.7
2018-Apr-22 03:54N 52°15' W 128°19'511.4
2018-Apr-22 03:30N 52°14' W 128°12'611.4
2018-Apr-22 02:59N 52°18' W 128°05'11 9.5
2018-Apr-22 01:49N 52°10' W 127°52'412.3
2018-Apr-22 01:30N 52°06' W 127°54'612.2
2018-Apr-22 01:00N 52°00' W 127°55'612.3
2018-Apr-22 00:31N 51°54' W 127°57'612.3
2018-Apr-22 00:00N 51°48' W 127°57'612.2
2018-Apr-21 23:30N 51°42' W 127°57'4 8.3
2018-Apr-21 23:00N 51°39' W 128°02'2 4.4
2018-Apr-21 22:28N 51°39' W 128°05'0 0.0
2018-Apr-21 21:58N 51°39' W 128°05'0 0.0
2018-Apr-21 21:25N 51°39' W 128°05'0 0.0
2018-Apr-21 20:55N 51°39' W 128°05'0 0.0
2018-Apr-21 20:28N 51°39' W 128°05'0 0.0
2018-Apr-21 19:58N 51°39' W 128°05'0 0.0
2018-Apr-21 19:28N 51°39' W 128°05'0 0.0
2018-Apr-21 18:52N 51°39' W 128°05'0 0.0
2018-Apr-21 18:28N 51°39' W 128°05'0 0.0
2018-Apr-21 17:58N 51°39' W 128°05'0 0.0
2018-Apr-21 17:28N 51°39' W 128°05'0 0.0
2018-Apr-21 16:58N 51°39' W 128°05'0 0.0
2018-Apr-21 16:28N 51°39' W 128°05'0 0.0
2018-Apr-21 15:58N 51°39' W 128°05'0 0.0
2018-Apr-21 15:28N 51°39' W 128°05'0 0.0
2018-Apr-21 14:58N 51°39' W 128°05'0 0.1
2018-Apr-21 14:28N 51°39' W 128°05'0 0.1
2018-Apr-21 13:58N 51°39' W 128°05'0 0.0
2018-Apr-21 13:28N 51°39' W 128°05'0 0.0
2018-Apr-21 12:58N 51°39' W 128°05'0 0.0
2018-Apr-21 12:25N 51°39' W 128°05'0 0.0
2018-Apr-21 11:55N 51°39' W 128°05'0 0.0
2018-Apr-21 11:28N 51°39' W 128°05'0 0.0
2018-Apr-21 10:49N 51°39' W 128°05'0 0.0
2018-Apr-21 10:28N 51°39' W 128°05'0 0.0
2018-Apr-21 09:55N 51°39' W 128°05'0 0.0
2018-Apr-21 09:28N 51°39' W 128°05'0 0.0
2018-Apr-21 08:58N 51°39' W 128°05'0 0.0
2018-Apr-21 08:28N 51°39' W 128°05'0 0.1
2018-Apr-21 07:55N 51°39' W 128°05'0 0.1
2018-Apr-21 07:28N 51°39' W 128°05'0 0.1
2018-Apr-21 06:58N 51°39' W 128°05'0 0.1
2018-Apr-21 06:28N 51°39' W 128°05'0 0.1
2018-Apr-21 05:58N 51°39' W 128°05'0 0.0
2018-Apr-21 05:25N 51°39' W 128°05'0 0.1
2018-Apr-21 04:58N 51°39' W 128°05'0 0.0
2018-Apr-21 04:28N 51°39' W 128°05'0 0.1
2018-Apr-21 03:58N 51°39' W 128°05'0 0.0
2018-Apr-21 03:28N 51°39' W 128°05'0 0.1
2018-Apr-21 02:52N 51°39' W 128°05'0 0.1
2018-Apr-21 02:28N 51°39' W 128°05'0 0.1
2018-Apr-21 01:58N 51°39' W 128°05'0 0.0
2018-Apr-21 01:28N 51°39' W 128°05'0 0.1
2018-Apr-21 00:55N 51°39' W 128°05'0 0.0
2018-Apr-21 00:28N 51°39' W 128°05'0 0.0
2018-Apr-20 23:55N 51°39' W 128°05'0 0.0
2018-Apr-20 23:22N 51°39' W 128°05'0 0.0
2018-Apr-20 22:58N 51°39' W 128°05'0 0.0
2018-Apr-20 22:28N 51°39' W 128°05'0 0.0
2018-Apr-20 22:00N 51°39' W 128°05'2 4.6
2018-Apr-20 21:30N 51°39' W 128°02'510.7
2018-Apr-20 21:00N 51°37' W 127°54'612.6
2018-Apr-20 20:30N 51°31' W 127°50'612.0
2018-Apr-20 19:59N 51°25' W 127°50'611.8
2018-Apr-20 19:29N 51°19' W 127°53'612.0
2018-Apr-20 19:00N 51°13' W 127°53'612.4
2018-Apr-20 18:30N 51°08' W 127°50'612.0
2018-Apr-20 17:59N 51°04' W 127°42'1112.4
2018-Apr-20 17:04N 50°57' W 127°28'113.9
2018-Apr-20 17:00N 50°56' W 127°27'610.7
2018-Apr-20 16:29N 50°51' W 127°24'611.8
2018-Apr-20 16:00N 50°46' W 127°27'3 1.3
2018-Apr-20 13:59N 50°43' W 127°29'0 0.0
2018-Apr-20 13:29N 50°43' W 127°29'0 0.0
2018-Apr-20 12:59N 50°43' W 127°29'0 0.0
2018-Apr-20 12:29N 50°43' W 127°29'0 0.0
2018-Apr-19 21:47N 50°43' W 127°29'0 0.0
2018-Apr-19 12:17N 50°43' W 127°29'0 0.0
2018-Apr-19 11:53N 50°43' W 127°29'0 0.0
2018-Apr-18 23:35N 50°43' W 127°29'0 0.0
2018-Apr-18 19:59N 50°43' W 127°29'0 0.0
2018-Apr-18 18:59N 50°43' W 127°29'0 0.0
2018-Apr-18 18:26N 50°43' W 127°29'1 2.6
2018-Apr-18 18:00N 50°43' W 127°28'0 0.0
2018-Apr-18 17:30N 50°43' W 127°28'0 0.0
2018-Apr-18 17:00N 50°43' W 127°28'0 0.0
2018-Apr-18 16:30N 50°43' W 127°28'0 0.0
2018-Apr-18 16:00N 50°43' W 127°28'0 0.0
2018-Apr-18 15:30N 50°43' W 127°28'1 2.1
2018-Apr-18 14:59N 50°44' W 127°28'510.8
2018-Apr-18 14:30N 50°49' W 127°25'611.5
2018-Apr-18 13:59N 50°55' W 127°22'0 0.6
2018-Apr-18 13:29N 50°55' W 127°21'0 0.0
2018-Apr-18 12:59N 50°55' W 127°21'0 0.0
2018-Apr-18 12:29N 50°55' W 127°21'0 0.0
2018-Apr-18 11:59N 50°55' W 127°21'0 0.0
2018-Apr-18 11:29N 50°55' W 127°21'0 0.0
2018-Apr-18 10:59N 50°55' W 127°21'0 0.0
2018-Apr-18 10:29N 50°55' W 127°21'0 0.0
2018-Apr-18 09:59N 50°55' W 127°21'0 0.0
2018-Apr-18 09:29N 50°55' W 127°21'0 0.0
2018-Apr-18 08:59N 50°55' W 127°21'0 0.0
2018-Apr-18 08:29N 50°55' W 127°21'0 0.0
2018-Apr-18 07:59N 50°55' W 127°21'0 0.1
2018-Apr-18 07:29N 50°55' W 127°21'0 0.0
2018-Apr-18 06:59N 50°55' W 127°21'0 0.0
2018-Apr-18 06:29N 50°55' W 127°21'0 0.0
2018-Apr-18 05:59N 50°55' W 127°21'0 0.0
2018-Apr-18 05:29N 50°55' W 127°21'0 0.0
2018-Apr-18 04:59N 50°55' W 127°21'0 0.0
2018-Apr-18 04:23N 50°55' W 127°21'0 0.0
2018-Apr-18 03:59N 50°55' W 127°21'0 0.0
2018-Apr-18 03:29N 50°55' W 127°21'0 0.0
2018-Apr-18 02:59N 50°55' W 127°21'0 0.0
2018-Apr-18 02:29N 50°55' W 127°21'0 0.0
2018-Apr-18 01:59N 50°55' W 127°21'0 0.1
2018-Apr-18 01:29N 50°55' W 127°21'0 0.0
2018-Apr-18 00:59N 50°55' W 127°21'0 0.0
2018-Apr-18 00:29N 50°55' W 127°21'0 0.0
2018-Apr-17 23:59N 50°55' W 127°21'0 0.0
2018-Apr-17 23:29N 50°55' W 127°21'0 0.0
2018-Apr-17 22:59N 50°55' W 127°21'0 0.0
2018-Apr-17 22:17N 50°55' W 127°21'0 0.0
2018-Apr-17 21:53N 50°55' W 127°21'0 0.0
2018-Apr-17 21:11N 50°55' W 127°21'0 0.0
2018-Apr-17 20:59N 50°55' W 127°21'0 0.0
2018-Apr-17 20:17N 50°55' W 127°21'0 0.0
2018-Apr-17 19:59N 50°55' W 127°21'0 0.9
2018-Apr-17 19:30N 50°55' W 127°21'5 9.9
2018-Apr-17 19:00N 50°50' W 127°25'711.5
2018-Apr-17 18:26N 50°44' W 127°28'0 0.4
2018-Apr-17 17:49N 50°44' W 127°29'1 2.5
2018-Apr-17 17:25N 50°44' W 127°28'0 0.2
2018-Apr-17 17:01N 50°44' W 127°28'1 1.0
2018-Apr-17 16:05N 50°44' W 127°29'0 1.3
2018-Apr-17 15:58N 50°44' W 127°28'4 7.8
2018-Apr-17 15:30N 50°47' W 127°31'611.1
2018-Apr-17 15:00N 50°50' W 127°38'1 1.2
2018-Apr-17 14:27N 50°50' W 127°39'0 0.0
2018-Apr-17 13:57N 50°50' W 127°39'0 0.1
2018-Apr-17 13:27N 50°50' W 127°39'0 0.1
2018-Apr-17 12:57N 50°50' W 127°39'0 0.0
2018-Apr-17 12:27N 50°50' W 127°39'0 0.0
2018-Apr-17 11:57N 50°50' W 127°39'0 0.0
2018-Apr-17 11:27N 50°50' W 127°39'0 0.0
2018-Apr-17 10:45N 50°50' W 127°39'0 0.0
2018-Apr-17 10:27N 50°50' W 127°39'0 0.0
2018-Apr-17 09:57N 50°50' W 127°39'0 0.0
2018-Apr-17 09:21N 50°50' W 127°39'0 0.0
2018-Apr-17 08:57N 50°50' W 127°39'0 0.0
2018-Apr-17 08:27N 50°50' W 127°39'0 0.0
2018-Apr-17 07:57N 50°50' W 127°39'0 0.0
2018-Apr-17 07:21N 50°50' W 127°39'0 0.0
2018-Apr-17 06:57N 50°50' W 127°39'0 0.1
2018-Apr-17 06:27N 50°50' W 127°39'0 0.0
2018-Apr-17 05:51N 50°50' W 127°39'0 0.1
2018-Apr-17 05:27N 50°50' W 127°39'0 0.0
2018-Apr-17 04:45N 50°50' W 127°39'0 0.0
2018-Apr-17 04:27N 50°50' W 127°39'0 0.0
2018-Apr-17 03:57N 50°50' W 127°39'0 0.0
2018-Apr-17 03:27N 50°50' W 127°39'0 0.0
2018-Apr-17 02:57N 50°50' W 127°39'0 0.0
2018-Apr-17 02:27N 50°50' W 127°39'0 0.0
2018-Apr-17 01:57N 50°50' W 127°39'0 0.0
2018-Apr-17 01:15N 50°50' W 127°39'0 0.0
2018-Apr-17 00:57N 50°50' W 127°39'0 0.0
2018-Apr-17 00:27N 50°50' W 127°39'0 0.0
2018-Apr-16 23:57N 50°50' W 127°39'0 0.0
2018-Apr-16 23:27N 50°50' W 127°39'0 0.1
2018-Apr-16 22:57N 50°50' W 127°39'0 0.0
2018-Apr-16 22:27N 50°50' W 127°39'0 0.1
2018-Apr-16 22:00N 50°50' W 127°39'3 5.2
2018-Apr-16 21:30N 50°50' W 127°43'611.4
2018-Apr-16 21:00N 50°52' W 127°52'0 0.2
2018-Apr-16 20:28N 50°51' W 127°52'0 0.0
2018-Apr-16 19:58N 50°51' W 127°52'0 0.0
2018-Apr-16 19:28N 50°51' W 127°52'0 0.0
2018-Apr-16 18:58N 50°51' W 127°52'0 0.0
2018-Apr-16 18:28N 50°51' W 127°52'0 0.0
2018-Apr-16 17:58N 50°51' W 127°52'0 0.0
2018-Apr-16 17:28N 50°51' W 127°52'0 0.0
2018-Apr-16 16:58N 50°51' W 127°52'0 0.0
2018-Apr-16 16:28N 50°51' W 127°52'0 0.0
2018-Apr-16 15:52N 50°51' W 127°52'0 0.0
2018-Apr-16 13:58N 50°51' W 127°52'0 0.0
2018-Apr-16 13:04N 50°51' W 127°52'0 0.0
2018-Apr-16 12:58N 50°51' W 127°52'0 0.0
2018-Apr-16 12:28N 50°51' W 127°52'0 0.0
2018-Apr-16 11:58N 50°51' W 127°52'0 0.0
2018-Apr-16 11:22N 50°51' W 127°52'0 0.0
2018-Apr-16 10:58N 50°51' W 127°52'0 0.0
2018-Apr-16 10:28N 50°51' W 127°52'0 0.0
2018-Apr-16 09:58N 50°51' W 127°52'0 0.0
2018-Apr-16 09:28N 50°51' W 127°52'0 0.0
2018-Apr-16 08:58N 50°51' W 127°52'0 0.0
2018-Apr-16 08:28N 50°51' W 127°52'0 0.0
2018-Apr-16 07:58N 50°51' W 127°52'0 0.1
2018-Apr-16 07:28N 50°51' W 127°52'0 0.0
2018-Apr-16 06:58N 50°51' W 127°52'0 0.0
2018-Apr-16 06:28N 50°51' W 127°52'0 0.1
2018-Apr-16 05:58N 50°51' W 127°52'0 0.1
2018-Apr-16 05:28N 50°51' W 127°52'0 0.0
2018-Apr-16 04:58N 50°51' W 127°52'0 0.0
2018-Apr-16 04:28N 50°51' W 127°52'0 0.0
2018-Apr-16 03:58N 50°51' W 127°52'0 0.0
2018-Apr-16 03:28N 50°51' W 127°52'0 0.0
2018-Apr-16 02:58N 50°51' W 127°52'0 0.0
2018-Apr-16 02:28N 50°51' W 127°52'0 0.0
2018-Apr-16 01:58N 50°51' W 127°52'0 0.0
2018-Apr-16 01:28N 50°51' W 127°52'0 0.0
2018-Apr-16 00:58N 50°51' W 127°52'0 0.0
2018-Apr-16 00:22N 50°51' W 127°52'0 0.0
2018-Apr-15 23:58N 50°51' W 127°52'0 0.0
2018-Apr-15 23:28N 50°51' W 127°52'0 0.0
2018-Apr-15 22:58N 50°51' W 127°52'0 0.0
2018-Apr-15 22:28N 50°51' W 127°52'0 0.0
2018-Apr-15 21:52N 50°51' W 127°52'0 0.1
2018-Apr-15 21:28N 50°51' W 127°52'0 0.1
2018-Apr-15 20:58N 50°51' W 127°52'1 2.6
2018-Apr-15 20:27N 50°52' W 127°50'4 9.7
2018-Apr-15 20:00N 50°50' W 127°44'611.3
2018-Apr-15 19:30N 50°49' W 127°35'4 7.1
2018-Apr-15 19:00N 50°47' W 127°30'0 0.5
2018-Apr-15 18:30N 50°47' W 127°30'4 7.2
2018-Apr-15 18:00N 50°48' W 127°35'3 5.5
2018-Apr-15 17:25N 50°50' W 127°39'0 0.1
2018-Apr-15 16:55N 50°50' W 127°39'0 0.1
2018-Apr-15 16:25N 50°50' W 127°39'0 0.0
2018-Apr-15 15:49N 50°50' W 127°39'0 0.0
2018-Apr-15 15:25N 50°50' W 127°39'0 0.0
2018-Apr-15 14:55N 50°50' W 127°39'0 0.0
2018-Apr-15 14:25N 50°50' W 127°39'0 0.1
2018-Apr-15 13:55N 50°50' W 127°39'0 0.1
2018-Apr-15 13:25N 50°50' W 127°39'0 0.0
2018-Apr-15 12:55N 50°50' W 127°39'0 0.0
2018-Apr-15 12:25N 50°50' W 127°39'0 0.0
2018-Apr-15 11:55N 50°50' W 127°39'0 0.0
2018-Apr-15 11:25N 50°50' W 127°39'0 0.0
2018-Apr-15 10:49N 50°50' W 127°39'0 0.0
2018-Apr-15 10:25N 50°50' W 127°39'0 0.0
2018-Apr-15 09:55N 50°50' W 127°39'0 0.0
2018-Apr-15 09:19N 50°50' W 127°39'0 0.0
2018-Apr-15 08:55N 50°50' W 127°39'0 0.1
2018-Apr-15 08:25N 50°50' W 127°39'0 0.1
2018-Apr-15 07:55N 50°50' W 127°39'0 0.0
2018-Apr-15 07:25N 50°50' W 127°39'0 0.0
2018-Apr-15 06:55N 50°50' W 127°39'0 0.1
2018-Apr-15 06:25N 50°50' W 127°39'0 0.1
2018-Apr-15 05:55N 50°50' W 127°39'0 0.1
2018-Apr-15 05:13N 50°50' W 127°39'0 0.1
2018-Apr-15 04:55N 50°50' W 127°39'0 0.1
2018-Apr-15 04:19N 50°50' W 127°39'0 0.0
2018-Apr-15 03:55N 50°50' W 127°39'0 0.0
2018-Apr-15 03:25N 50°50' W 127°39'0 0.0
2018-Apr-15 02:55N 50°50' W 127°39'0 0.0
2018-Apr-15 02:19N 50°50' W 127°39'0 0.1
2018-Apr-15 01:55N 50°50' W 127°39'0 0.1
2018-Apr-15 01:25N 50°50' W 127°39'0 0.0
2018-Apr-15 00:55N 50°50' W 127°39'0 0.1
2018-Apr-15 00:25N 50°50' W 127°39'0 0.0
2018-Apr-14 23:55N 50°50' W 127°39'0 0.1
2018-Apr-14 23:25N 50°50' W 127°39'0 0.0
2018-Apr-14 22:55N 50°50' W 127°39'0 0.1
2018-Apr-14 22:25N 50°50' W 127°39'1 2.6
2018-Apr-14 22:00N 50°49' W 127°39'511.0
2018-Apr-14 21:31N 50°51' W 127°47'611.7
2018-Apr-14 21:00N 50°53' W 127°56'  

Dump ship's entire track history